Time;durP1;ratioP1;P1;durP2;ratioP2;P2;SDS_P1;SDS_P2;PMS_P1;PMS_P2;Temp;Humidity;BMP_temperature;BMP_pressure;BME280_temperature;BME280_humidity;BME280_pressure;Samples;Min_cycle;Max_cycle;Signal;HPM_P1;HPM_P2
2021/01/18 00:00:26;;;;;;;16.93;7.07;;;9.90;67.50;;;;;;5023411;28;20178;-84
2021/01/18 00:02:52;;;;;;;13.02;7.53;;;9.90;67.50;;;;;;5034518;28;20208;-86
2021/01/18 00:05:19;;;;;;;21.45;7.35;;;9.90;67.50;;;;;;5034595;28;20196;-85
2021/01/18 00:07:50;;;;;;;19.95;7.90;;;9.90;67.60;;;;;;5034523;28;20252;-86
2021/01/18 00:10:25;;;;;;;12.20;7.05;;;9.90;67.50;;;;;;5034249;28;20208;-85
2021/01/18 00:12:55;;;;;;;17.40;7.10;;;9.90;67.40;;;;;;5035981;28;20162;-84
2021/01/18 00:15:23;;;;;;;15.57;8.20;;;9.90;67.30;;;;;;5034570;28;20182;-85
2021/01/18 00:17:50;;;;;;;23.38;7.97;;;9.90;67.30;;;;;;5034112;28;20192;-85
2021/01/18 00:20:18;;;;;;;23.65;8.35;;;9.90;67.30;;;;;;5033070;28;20308;-85
2021/01/18 00:22:45;;;;;;;16.27;6.90;;;9.90;67.30;;;;;;5035063;28;20194;-86
2021/01/18 00:25:13;;;;;;;17.45;8.88;;;9.90;67.20;;;;;;5033703;28;20186;-86
2021/01/18 00:27:40;;;;;;;20.73;8.43;;;9.90;67.30;;;;;;5034502;28;20197;-86
2021/01/18 00:30:09;;;;;;;14.68;8.27;;;9.90;67.70;;;;;;5033814;28;20201;-87
2021/01/18 00:32:35;;;;;;;18.70;8.02;;;9.90;67.90;;;;;;5033762;28;20198;-87
2021/01/18 00:35:01;;;;;;;25.30;9.43;;;9.90;68.00;;;;;;5038428;28;20204;-86
2021/01/18 00:37:28;;;;;;;25.27;8.00;;;9.90;68.00;;;;;;5037603;28;20198;-86
2021/01/18 00:39:53;;;;;;;16.58;7.03;;;9.90;68.00;;;;;;5027318;28;20508;-86
2021/01/18 00:42:20;;;;;;;20.30;7.93;;;9.90;68.00;;;;;;5017554;28;20254;-86
2021/01/18 00:44:47;;;;;;;18.77;8.07;;;9.90;67.90;;;;;;5020436;28;20549;-87
2021/01/18 00:47:14;;;;;;;22.08;8.32;;;9.90;67.80;;;;;;5023722;28;20199;-86
2021/01/18 00:49:40;;;;;;;15.75;8.40;;;9.90;67.80;;;;;;5017441;28;20715;-87
2021/01/18 00:52:07;;;;;;;16.25;7.80;;;9.90;67.80;;;;;;5018477;28;20222;-87
2021/01/18 00:54:32;;;;;;;23.52;8.20;;;9.90;67.80;;;;;;5018149;28;20175;-87
2021/01/18 00:56:58;;;;;;;24.57;7.90;;;9.90;67.70;;;;;;5017983;28;20182;-87
2021/01/18 00:59:24;;;;;;;17.20;8.20;;;9.90;67.70;;;;;;5022421;28;20209;-86
2021/01/18 01:01:50;;;;;;;15.77;8.40;;;9.80;67.60;;;;;;5036529;28;20273;-86
2021/01/18 01:04:15;;;;;;;14.50;6.77;;;9.80;67.90;;;;;;5037962;28;20231;-86
2021/01/18 01:06:41;;;;;;;11.37;6.00;;;9.80;67.80;;;;;;5039323;28;20297;-87
2021/01/18 01:09:07;;;;;;;11.13;6.23;;;9.80;67.70;;;;;;5039364;28;20174;-86
2021/01/18 01:11:32;;;;;;;13.87;6.97;;;9.70;67.50;;;;;;5041634;28;20190;-87
2021/01/18 01:13:58;;;;;;;17.13;7.13;;;9.70;67.50;;;;;;5044826;28;20174;-86
2021/01/18 01:16:24;;;;;;;11.30;7.03;;;9.70;67.70;;;;;;5042975;28;20185;-86
2021/01/18 01:18:49;;;;;;;18.13;6.83;;;9.60;67.70;;;;;;5045183;28;20351;-86
2021/01/18 01:21:15;;;;;;;17.90;7.40;;;9.60;67.90;;;;;;5045489;28;20202;-86
2021/01/18 01:23:41;;;;;;;16.80;6.40;;;9.50;68.10;;;;;;5042383;28;20424;-86
2021/01/18 01:26:07;;;;;;;22.60;7.93;;;9.40;68.00;;;;;;5046425;28;20185;-87
2021/01/18 01:28:32;;;;;;;13.27;7.00;;;9.40;68.00;;;;;;5030432;28;20182;-86
2021/01/18 01:30:58;;;;;;;18.27;7.63;;;9.30;68.20;;;;;;5017100;28;20232;-86
2021/01/18 01:33:24;;;;;;;15.77;8.63;;;9.30;68.40;;;;;;5021705;28;20183;-87
2021/01/18 01:35:49;;;;;;;26.57;8.30;;;9.20;68.60;;;;;;5032180;28;20604;-87
2021/01/18 01:38:15;;;;;;;19.43;7.73;;;9.10;69.00;;;;;;5029338;28;20182;-87
2021/01/18 01:40:40;;;;;;;13.27;7.80;;;9.10;69.20;;;;;;5027475;28;20684;-87
2021/01/18 01:43:06;;;;;;;21.37;9.23;;;9.10;69.40;;;;;;5031953;28;20219;-86
2021/01/18 01:45:32;;;;;;;10.30;6.93;;;9.00;69.30;;;;;;5030824;28;20178;-87
2021/01/18 01:48:00;;;;;;;19.63;8.60;;;9.00;69.30;;;;;;5030264;28;20233;-85
2021/01/18 01:50:28;;;;;;;20.02;8.55;;;8.90;69.50;;;;;;5035805;28;20397;-86
2021/01/18 01:53:12;;;;;;;20.38;8.20;;;8.90;69.70;;;;;;5038595;28;20210;-86
2021/01/18 01:55:39;;;;;;;17.73;8.88;;;8.90;69.80;;;;;;5027312;28;20178;-87
2021/01/18 01:58:06;;;;;;;20.00;9.05;;;8.80;69.80;;;;;;5027682;28;20277;-87
2021/01/18 02:00:38;;;;;;;19.80;10.07;;;8.80;69.80;;;;;;5015110;28;20182;-87
2021/01/18 02:03:25;;;;;;;20.70;8.75;;;8.70;69.90;;;;;;5016002;28;20630;-86
2021/01/18 02:05:53;;;;;;;20.48;8.48;;;8.70;69.90;;;;;;5015176;28;20178;-86
2021/01/18 02:08:19;;;;;;;21.38;9.40;;;8.70;70.10;;;;;;5034090;28;20268;-87
2021/01/18 02:10:45;;;;;;;20.50;9.40;;;8.70;70.20;;;;;;5035433;28;20198;-86
2021/01/18 02:13:29;;;;;;;21.70;8.83;;;8.70;70.30;;;;;;5035771;28;20185;-87
2021/01/18 02:16:10;;;;;;;20.25;7.82;;;8.60;70.40;;;;;;5047623;28;20241;-87
2021/01/18 02:19:00;;;;;;;20.55;8.48;;;8.60;70.40;;;;;;5059810;28;20161;-86
2021/01/18 02:22:11;;;;;;;18.85;9.93;;;8.60;70.80;;;;;;5044212;28;20564;-87
2021/01/18 02:24:48;;;;;;;17.80;8.90;;;8.60;71.70;;;;;;5035418;28;20219;-86
2021/01/18 02:27:55;;;;;;;13.77;8.38;;;8.50;71.10;;;;;;5035601;28;20197;-86
2021/01/18 02:30:51;;;;;;;16.50;8.00;;;8.50;71.20;;;;;;4997735;28;20217;-86
2021/01/18 02:33:42;;;;;;;25.40;9.13;;;8.50;71.50;;;;;;5014854;28;20672;-86
2021/01/18 02:36:17;;;;;;;27.70;9.10;;;8.40;71.50;;;;;;5014684;28;20229;-86
2021/01/18 02:39:16;;;;;;;23.55;8.85;;;8.50;71.50;;;;;;5014646;28;20646;-85
2021/01/18 02:41:59;;;;;;;18.80;8.60;;;8.40;71.30;;;;;;5014189;28;20214;-86
2021/01/18 02:44:27;;;;;;;16.23;9.25;;;8.40;71.30;;;;;;5032669;28;20666;-86
2021/01/18 02:46:53;;;;;;;15.98;8.52;;;8.40;71.50;;;;;;5035528;28;20220;-86
2021/01/18 02:49:21;;;;;;;22.10;9.23;;;8.40;71.40;;;;;;5034391;28;20180;-86
2021/01/18 02:51:52;;;;;;;21.83;10.90;;;8.40;71.40;;;;;;5033996;28;20982;-85
2021/01/18 02:54:17;;;;;;;23.33;9.80;;;8.40;71.60;;;;;;5034709;28;20177;-86
2021/01/18 02:56:50;;;;;;;22.57;9.93;;;8.50;71.80;;;;;;5033344;28;20197;-85
2021/01/18 02:59:16;;;;;;;26.83;9.55;;;8.50;71.80;;;;;;5034486;28;20188;-84
2021/01/18 03:02:02;;;;;;;26.23;9.10;;;8.40;71.50;;;;;;5034843;28;20296;-87
2021/01/18 03:04:36;;;;;;;19.98;8.90;;;8.40;71.60;;;;;;5034566;28;20519;-86
2021/01/18 03:07:11;;;;;;;18.52;9.10;;;8.40;71.80;;;;;;5034121;28;20193;-86
2021/01/18 03:09:48;;;;;;;20.52;9.07;;;8.40;71.70;;;;;;5034662;28;20169;-86
2021/01/18 03:12:19;;;;;;;15.38;7.60;;;8.40;71.60;;;;;;5035996;28;20208;-85
2021/01/18 03:14:48;;;;;;;20.38;8.45;;;8.50;71.80;;;;;;5033987;28;20182;-86
2021/01/18 03:17:20;;;;;;;20.70;8.00;;;8.50;71.90;;;;;;5033664;28;20193;-86
2021/01/18 03:19:47;;;;;;;12.25;9.00;;;8.60;71.80;;;;;;5034843;28;20170;-87
2021/01/18 03:22:29;;;;;;;20.17;9.07;;;8.60;71.70;;;;;;5034488;28;20232;-86
2021/01/18 03:25:08;;;;;;;22.10;8.82;;;8.70;71.60;;;;;;5036398;28;20174;-86
2021/01/18 03:27:52;;;;;;;16.85;8.82;;;8.70;71.50;;;;;;5035259;28;20209;-86
2021/01/18 03:30:22;;;;;;;14.20;9.15;;;8.80;71.10;;;;;;5040064;28;20166;-86
2021/01/18 03:32:54;;;;;;;18.52;9.05;;;8.80;71.00;;;;;;5040658;28;20178;-86
2021/01/18 03:35:21;;;;;;;18.95;7.68;;;8.80;70.90;;;;;;5038912;28;20275;-86
2021/01/18 03:37:57;;;;;;;23.00;8.50;;;8.80;70.70;;;;;;5040065;28;20182;-85
2021/01/18 03:40:24;;;;;;;19.00;8.05;;;8.70;70.40;;;;;;5045601;28;20233;-86
2021/01/18 03:42:57;;;;;;;22.55;9.35;;;8.70;70.40;;;;;;5050740;28;20184;-85
2021/01/18 03:45:24;;;;;;;12.00;7.40;;;8.70;70.40;;;;;;5049807;28;20185;-87
2021/01/18 03:47:50;;;;;;;19.77;8.23;;;8.60;70.30;;;;;;5029447;28;20202;-86
2021/01/18 03:50:16;;;;;;;31.87;9.80;;;8.60;70.30;;;;;;5021644;28;20189;-85
2021/01/18 03:52:49;;;;;;;17.77;7.68;;;8.60;70.30;;;;;;5020430;28;20213;-85
2021/01/18 03:55:15;;;;;;;16.08;7.30;;;8.50;70.50;;;;;;5020987;28;20185;-86
2021/01/18 03:57:44;;;;;;;15.52;7.53;;;8.50;70.70;;;;;;5023045;28;20600;-85
2021/01/18 04:00:10;;;;;;;12.65;8.05;;;8.40;70.70;;;;;;5019273;28;20182;-84
2021/01/18 04:02:37;;;;;;;15.00;7.32;;;8.40;70.90;;;;;;5027205;28;20202;-86
2021/01/18 04:05:03;;;;;;;21.88;8.43;;;8.40;71.10;;;;;;5028433;28;20179;-86
2021/01/18 04:07:28;;;;;;;26.67;9.57;;;8.40;71.10;;;;;;5026166;28;20199;-86
2021/01/18 04:09:54;;;;;;;14.17;7.63;;;8.30;71.40;;;;;;5029651;28;20716;-86
2021/01/18 04:12:20;;;;;;;15.47;7.97;;;8.30;71.40;;;;;;5024470;28;20190;-85
2021/01/18 04:14:45;;;;;;;23.83;8.90;;;8.30;71.60;;;;;;5017955;28;20182;-86
2021/01/18 04:17:12;;;;;;;15.80;8.10;;;8.30;71.70;;;;;;5019391;28;20550;-86
2021/01/18 04:19:37;;;;;;;12.75;8.45;;;8.30;71.70;;;;;;5022351;28;20787;-85
2021/01/18 04:22:06;;;;;;;12.40;7.50;;;8.20;71.80;;;;;;5038096;28;20214;-85
2021/01/18 04:24:36;;;;;;;20.85;8.48;;;8.20;71.70;;;;;;5037564;28;20189;-86
2021/01/18 04:27:03;;;;;;;18.60;7.68;;;8.10;71.80;;;;;;5037029;28;20251;-85
2021/01/18 04:29:29;;;;;;;19.60;8.18;;;8.10;72.10;;;;;;5037627;28;20178;-85
2021/01/18 04:31:55;;;;;;;43.67;10.40;;;8.10;72.10;;;;;;5036361;28;20609;-86
2021/01/18 04:34:20;;;;;;;23.57;8.40;;;8.10;72.20;;;;;;5036819;28;20178;-85
2021/01/18 04:36:47;;;;;;;12.93;8.03;;;8.10;72.30;;;;;;5037171;28;20632;-85
2021/01/18 04:39:12;;;;;;;26.90;9.63;;;8.10;72.10;;;;;;5031601;28;20594;-86
2021/01/18 04:41:43;;;;;;;24.13;9.67;;;8.10;72.20;;;;;;5017842;28;20194;-85
2021/01/18 04:44:12;;;;;;;20.35;9.02;;;8.00;72.20;;;;;;5017131;28;20456;-85
2021/01/18 04:46:40;;;;;;;28.55;10.15;;;8.00;72.30;;;;;;5018263;28;20199;-86
2021/01/18 04:49:07;;;;;;;18.23;9.85;;;8.00;72.40;;;;;;5016805;28;20171;-86
2021/01/18 04:51:48;;;;;;;14.48;8.73;;;8.00;72.40;;;;;;5016413;28;20545;-86
2021/01/18 04:54:19;;;;;;;23.25;9.80;;;8.00;72.30;;;;;;5017199;28;20178;-86
2021/01/18 04:57:10;;;;;;;24.17;8.65;;;7.90;72.20;;;;;;5016985;28;20182;-86
2021/01/18 04:59:48;;;;;;;18.38;8.35;;;7.90;72.20;;;;;;5017206;28;20189;-86
2021/01/18 05:02:14;;;;;;;28.73;9.27;;;7.90;72.40;;;;;;5016362;28;20228;-86
2021/01/18 05:04:43;;;;;;;14.77;8.68;;;7.90;72.40;;;;;;5016824;28;20175;-86
2021/01/18 05:07:24;;;;;;;17.65;8.73;;;7.90;73.20;;;;;;5016675;28;20225;-86
2021/01/18 05:10:11;;;;;;;19.60;9.02;;;7.90;72.50;;;;;;5018892;28;20185;-86
2021/01/18 05:12:42;;;;;;;15.95;8.80;;;7.90;72.30;;;;;;5017549;28;20195;-85
2021/01/18 05:15:12;;;;;;;20.25;9.65;;;7.90;72.40;;;;;;5024664;28;20175;-86
2021/01/18 05:17:49;;;;;;;20.45;9.20;;;7.90;72.50;;;;;;5016814;28;20171;-86
2021/01/18 05:20:17;;;;;;;32.95;8.90;;;8.00;72.50;;;;;;5026664;28;20220;-87
2021/01/18 05:22:45;;;;;;;20.40;9.05;;;8.00;72.40;;;;;;5036575;28;20316;-85
2021/01/18 05:25:14;;;;;;;20.55;8.93;;;8.00;72.30;;;;;;5036767;28;20261;-85
2021/01/18 05:28:01;;;;;;;23.15;9.48;;;8.00;72.30;;;;;;5036712;28;20264;-86
2021/01/18 05:30:34;;;;;;;16.65;9.30;;;8.10;72.60;;;;;;5053654;28;20193;-86
2021/01/18 05:33:01;;;;;;;14.30;8.02;;;8.00;72.50;;;;;;5060490;28;20204;-86
2021/01/18 05:35:27;;;;;;;13.73;8.30;;;8.10;72.50;;;;;;5059679;28;20225;-86
2021/01/18 05:38:01;;;;;;;15.80;9.10;;;8.10;72.50;;;;;;5041794;28;20217;-86
2021/01/18 05:40:28;;;;;;;16.55;8.50;;;8.10;72.40;;;;;;5022233;28;20418;-86
2021/01/18 05:42:59;;;;;;;18.58;7.72;;;8.10;72.00;;;;;;5016211;28;20659;-86
2021/01/18 05:45:33;;;;;;;17.38;8.50;;;8.10;71.90;;;;;;5018769;28;20198;-86
2021/01/18 05:48:00;;;;;;;18.25;8.80;;;8.10;71.80;;;;;;5036487;28;20190;-85
2021/01/18 05:50:27;;;;;;;15.20;8.60;;;8.10;71.80;;;;;;5036402;28;20166;-86
2021/01/18 05:52:53;;;;;;;22.50;9.10;;;8.10;71.80;;;;;;5035756;28;20193;-86
2021/01/18 05:55:30;;;;;;;22.58;9.43;;;8.10;71.90;;;;;;5035942;28;20182;-84
2021/01/18 05:58:01;;;;;;;19.27;10.07;;;8.10;71.90;;;;;;5051268;28;20185;-87
2021/01/18 06:00:37;;;;;;;15.93;8.35;;;8.20;71.90;;;;;;5052069;28;20217;-85
2021/01/18 06:03:10;;;;;;;18.05;8.88;;;8.10;71.90;;;;;;5036808;28;20162;-85
2021/01/18 06:05:41;;;;;;;16.00;7.82;;;8.10;71.80;;;;;;5034923;28;20594;-85
2021/01/18 06:08:12;;;;;;;19.90;10.38;;;8.10;71.80;;;;;;5034926;28;20213;-85
2021/01/18 06:10:39;;;;;;;16.83;8.32;;;8.10;71.80;;;;;;5034541;28;20192;-84
2021/01/18 06:13:19;;;;;;;23.33;8.27;;;8.20;71.80;;;;;;5035349;28;20189;-85
2021/01/18 06:15:46;;;;;;;15.75;8.13;;;8.20;71.60;;;;;;5035023;28;20304;-85
2021/01/18 06:18:16;;;;;;;17.85;9.77;;;8.10;71.40;;;;;;5036882;28;20177;-85
2021/01/18 06:20:44;;;;;;;15.32;8.50;;;8.10;71.40;;;;;;5025846;28;20202;-89
2021/01/18 06:23:10;;;;;;;24.60;7.70;;;8.10;71.30;;;;;;5019945;28;20659;-90
2021/01/18 06:25:37;;;;;;;22.23;9.77;;;8.10;71.30;;;;;;5034940;28;20178;-87
2021/01/18 06:28:23;;;;;;;19.17;7.97;;;8.20;71.30;;;;;;5029487;28;20234;-86
2021/01/18 06:30:55;;;;;;;16.17;7.53;;;8.20;71.10;;;;;;5035061;28;20217;-87
2021/01/18 06:33:21;;;;;;;16.25;8.50;;;8.10;70.90;;;;;;5037714;28;20217;-88
2021/01/18 06:35:46;;;;;;;18.20;8.43;;;8.10;70.90;;;;;;5039267;28;20181;-86
2021/01/18 06:38:21;;;;;;;19.23;8.90;;;8.10;70.90;;;;;;5037032;28;20181;-88
2021/01/18 06:40:58;;;;;;;20.02;8.05;;;8.10;70.90;;;;;;5047753;28;20212;-88
2021/01/18 06:43:24;;;;;;;10.63;7.45;;;8.10;70.70;;;;;;5038214;28;20185;-87
2021/01/18 06:45:50;;;;;;;12.27;8.80;;;8.10;70.60;;;;;;5034802;28;20182;-87
2021/01/18 06:48:16;;;;;;;35.17;10.20;;;8.10;70.50;;;;;;5033377;28;20223;-88
2021/01/18 06:50:41;;;;;;;14.05;7.82;;;8.10;70.40;;;;;;5017300;28;20606;-87
2021/01/18 06:53:17;;;;;;;14.60;7.30;;;8.10;70.60;;;;;;5033428;28;20292;-88
2021/01/18 06:55:53;;;;;;;21.70;9.20;;;8.00;70.60;;;;;;5033573;28;20196;-87
2021/01/18 06:58:33;;;;;;;15.80;7.88;;;8.10;71.00;;;;;;5015968;28;20533;-89
2021/01/18 07:01:00;;;;;;;14.32;7.55;;;8.00;70.90;;;;;;5017571;28;20206;-87
2021/01/18 07:03:40;;;;;;;14.98;7.90;;;8.10;71.10;;;;;;5018153;28;20174;-87
2021/01/18 07:06:27;;;;;;;13.68;7.97;;;8.10;71.20;;;;;;5019207;28;20186;-87
2021/01/18 07:08:57;;;;;;;17.75;7.88;;;8.10;71.10;;;;;;5016746;28;20170;-87
2021/01/18 07:11:23;;;;;;;17.27;7.22;;;8.00;71.10;;;;;;5016153;28;20202;-87
2021/01/18 07:13:50;;;;;;;18.05;8.30;;;8.10;71.30;;;;;;5027677;28;20448;-86
2021/01/18 07:16:19;;;;;;;20.13;7.70;;;8.10;71.20;;;;;;5023880;28;20170;-86
2021/01/18 07:18:56;;;;;;;17.98;7.47;;;8.00;71.10;;;;;;5031090;28;20177;-88
2021/01/18 07:21:26;;;;;;;13.63;7.45;;;8.10;71.20;;;;;;5024607;28;20194;-87
2021/01/18 07:24:00;;;;;;;18.20;8.10;;;8.00;71.20;;;;;;5032184;28;20182;-88
2021/01/18 07:26:50;;;;;;;31.17;8.98;;;8.00;71.10;;;;;;5034575;28;20289;-87
2021/01/18 07:29:21;;;;;;;18.55;8.18;;;8.00;71.20;;;;;;5016508;28;20170;-88
2021/01/18 07:31:50;;;;;;;16.00;7.18;;;7.90;71.10;;;;;;5023437;28;20210;-89
2021/01/18 07:34:18;;;;;;;13.88;7.93;;;7.90;71.00;;;;;;5031423;28;20183;-88
2021/01/18 07:36:44;;;;;;;22.08;10.73;;;7.90;71.20;;;;;;5032297;28;20494;-89
2021/01/18 07:39:23;;;;;;;19.70;8.90;;;7.90;71.40;;;;;;5046836;28;20228;-90
2021/01/18 07:41:49;;;;;;;24.50;8.90;;;7.90;71.50;;;;;;5050088;28;20216;-88
2021/01/18 07:44:35;;;;;;;17.37;7.77;;;8.00;71.40;;;;;;5029119;28;20178;-88
2021/01/18 07:47:03;;;;;;;14.27;7.93;;;8.00;71.20;;;;;;5035382;28;20251;-89
2021/01/18 07:49:47;;;;;;;26.80;8.90;;;8.10;71.10;;;;;;5036120;28;20182;-89
2021/01/18 07:52:27;;;;;;;21.52;9.30;;;8.10;71.10;;;;;;5036811;28;20213;-89
2021/01/18 07:54:54;;;;;;;18.58;8.75;;;8.10;70.90;;;;;;5033961;28;20180;-89
2021/01/18 07:57:38;;;;;;;18.63;9.63;;;8.10;70.70;;;;;;5020767;28;20763;-88
2021/01/18 08:00:19;;;;;;;20.85;9.00;;;8.10;70.60;;;;;;5024418;28;20182;-88
2021/01/18 08:02:48;;;;;;;21.42;9.55;;;8.10;70.70;;;;;;5034047;28;20190;-89
2021/01/18 08:05:25;;;;;;;22.08;9.00;;;8.10;70.80;;;;;;5035112;28;20189;-89
2021/01/18 08:08:03;;;;;;;15.00;8.52;;;8.20;70.40;;;;;;5035050;28;20279;-89
2021/01/18 08:10:52;;;;;;;17.60;7.72;;;8.10;70.10;;;;;;5036233;28;20746;-89
2021/01/18 08:13:40;;;;;;;20.38;7.90;;;8.10;69.90;;;;;;5040843;28;20178;-89
2021/01/18 08:16:28;;;;;;;27.75;8.05;;;8.20;69.80;;;;;;5049185;28;20213;-87
2021/01/18 08:19:17;;;;;;;22.48;9.00;;;8.20;69.80;;;;;;5041781;28;20214;-88
2021/01/18 08:21:57;;;;;;;14.35;7.00;;;8.20;69.80;;;;;;5047495;28;20561;-86
2021/01/18 08:24:23;;;;;;;15.15;7.90;;;8.30;70.00;;;;;;5046013;28;20605;-87
2021/01/18 08:27:01;;;;;;;20.03;7.90;;;8.30;69.90;;;;;;5036593;28;20251;-88
2021/01/18 08:29:50;;;;;;;27.48;7.63;;;8.40;69.80;;;;;;5022400;28;20421;-88
2021/01/18 08:32:37;;;;;;;10.98;6.82;;;8.40;69.70;;;;;;5014063;28;20564;-87
2021/01/18 08:35:18;;;;;;;19.45;8.52;;;8.40;69.60;;;;;;5015291;28;20183;-87
2021/01/18 08:37:56;;;;;;;17.50;6.78;;;8.40;69.40;;;;;;5014141;28;20182;-89
2021/01/18 08:40:30;;;;;;;31.15;9.20;;;8.40;69.30;;;;;;5015504;28;20162;-86
2021/01/18 08:42:56;;;;;;;16.08;7.00;;;8.50;69.30;;;;;;5026705;28;20200;-87
2021/01/18 08:45:35;;;;;;;21.05;8.75;;;8.50;69.10;;;;;;5035187;28;20529;-88
2021/01/18 08:48:03;;;;;;;24.98;8.65;;;8.50;69.10;;;;;;5035774;28;20232;-87
2021/01/18 08:50:44;;;;;;;16.80;8.05;;;8.60;69.20;;;;;;5019582;28;20192;-87
2021/01/18 08:53:29;;;;;;;17.23;7.55;;;8.60;69.10;;;;;;5035926;28;20197;-86
2021/01/18 08:56:02;;;;;;;21.13;6.97;;;8.60;68.90;;;;;;5041153;28;20170;-87
2021/01/18 08:58:41;;;;;;;17.55;7.80;;;8.60;68.70;;;;;;5040278;28;20193;-87
2021/01/18 09:01:22;;;;;;;20.95;9.90;;;8.60;68.70;;;;;;5040514;28;20204;-87
2021/01/18 09:04:00;;;;;;;13.13;7.47;;;8.60;68.60;;;;;;5043124;28;20263;-88
2021/01/18 09:06:26;;;;;;;16.92;7.55;;;8.70;68.50;;;;;;5040229;28;20197;-88
2021/01/18 09:09:04;;;;;;;22.38;8.50;;;8.70;68.40;;;;;;5037962;28;20659;-87
2021/01/18 09:11:31;;;;;;;18.48;7.63;;;8.70;68.50;;;;;;5037939;28;20209;-88
2021/01/18 09:13:57;;;;;;;21.60;8.40;;;8.70;68.60;;;;;;5038388;28;20197;-89
2021/01/18 09:16:23;;;;;;;10.67;6.50;;;8.80;68.80;;;;;;5038932;28;20182;-88
2021/01/18 09:18:48;;;;;;;14.00;5.97;;;8.90;68.80;;;;;;5039401;28;20182;-87
2021/01/18 09:21:16;;;;;;;9.77;6.23;;;8.90;68.60;;;;;;5038205;28;20229;-89
2021/01/18 09:23:42;;;;;;;20.90;7.70;;;9.00;68.40;;;;;;5039929;28;20182;-88
2021/01/18 09:26:11;;;;;;;15.32;7.43;;;9.00;68.30;;;;;;5053132;28;20174;-88
2021/01/18 09:28:51;;;;;;;33.75;8.48;;;9.10;68.20;;;;;;5059518;28;20182;-89
2021/01/18 09:31:17;;;;;;;13.63;6.93;;;9.10;68.00;;;;;;5058766;28;20229;-89
2021/01/18 09:33:43;;;;;;;21.27;6.77;;;9.20;67.80;;;;;;5052929;28;20189;-89
2021/01/18 09:36:27;;;;;;;36.45;7.80;;;9.20;67.70;;;;;;5041159;28;20435;-88
2021/01/18 09:38:53;;;;;;;20.80;7.22;;;9.30;67.70;;;;;;5039942;28;20256;-88
2021/01/18 09:41:18;;;;;;;19.63;8.73;;;9.30;67.70;;;;;;5037266;28;20248;-89
2021/01/18 09:43:45;;;;;;;12.63;6.93;;;9.30;67.30;;;;;;5020297;28;20175;-89
2021/01/18 09:46:13;;;;;;;18.27;6.63;;;9.40;67.10;;;;;;5018615;28;20186;-89
2021/01/18 09:48:39;;;;;;;14.10;6.40;;;9.50;67.10;;;;;;5021646;28;20693;-89
2021/01/18 09:51:07;;;;;;;19.65;8.40;;;9.50;67.10;;;;;;5018182;28;20281;-89
2021/01/18 09:53:34;;;;;;;11.48;6.80;;;9.50;66.90;;;;;;5033788;28;20171;-87
2021/01/18 09:56:06;;;;;;;16.95;6.28;;;9.60;66.80;;;;;;5045140;28;20178;-87
2021/01/18 09:58:32;;;;;;;19.58;7.30;;;9.70;66.70;;;;;;5057871;28;20178;-88
2021/01/18 10:01:00;;;;;;;12.60;6.43;;;9.70;66.90;;;;;;5040881;28;20202;-90
2021/01/18 10:03:37;;;;;;;19.80;7.60;;;9.80;66.90;;;;;;5046349;28;20205;-88
2021/01/18 10:06:07;;;;;;;13.63;6.85;;;9.80;66.70;;;;;;5057708;28;20169;-89
2021/01/18 10:08:35;;;;;;;18.23;6.28;;;9.90;66.60;;;;;;5055612;28;20182;-90
2021/01/18 10:11:01;;;;;;;14.15;5.85;;;10.00;66.80;;;;;;5052199;28;20204;-88
2021/01/18 10:13:27;;;;;;;9.07;5.30;;;10.00;66.80;;;;;;5037982;28;20174;-90
2021/01/18 10:15:54;;;;;;;10.85;5.78;;;10.00;66.90;;;;;;5038420;28;20416;-88
2021/01/18 10:18:44;;;;;;;23.10;6.35;;;10.10;67.00;;;;;;5040396;28;20596;-89
2021/01/18 10:21:11;;;;;;;16.65;6.38;;;10.10;66.80;;;;;;5038611;28;20196;-89
2021/01/18 10:23:39;;;;;;;12.60;6.15;;;10.20;66.80;;;;;;5037347;28;20209;-88
2021/01/18 10:26:28;;;;;;;21.67;6.30;;;10.20;66.30;;;;;;5037094;28;20214;-88
2021/01/18 10:29:02;;;;;;;15.85;6.25;;;10.20;65.90;;;;;;5029701;28;20190;-88
2021/01/18 10:31:33;;;;;;;12.13;5.38;;;10.20;65.40;;;;;;5018885;28;20277;-90
2021/01/18 10:34:10;;;;;;;10.90;5.90;;;10.20;65.50;;;;;;5033998;28;20304;-89
2021/01/18 10:36:36;;;;;;;16.23;5.10;;;10.30;66.10;;;;;;5041356;28;20197;-88
2021/01/18 10:39:02;;;;;;;11.13;5.50;;;10.40;66.10;;;;;;5043437;28;20181;-90
2021/01/18 10:41:32;;;;;;;13.98;5.68;;;10.40;65.80;;;;;;5044838;28;20574;-86
2021/01/18 10:44:04;;;;;;;17.15;5.22;;;10.50;65.70;;;;;;5040114;28;20323;-89
2021/01/18 10:46:30;;;;;;;14.07;6.25;;;10.60;65.40;;;;;;5029332;28;20202;-90
2021/01/18 10:48:56;;;;;;;24.90;7.38;;;10.60;65.10;;;;;;5019736;28;20183;-88
2021/01/18 10:51:29;;;;;;;7.43;5.53;;;10.70;64.80;;;;;;5016627;28;20677;-89
2021/01/18 10:53:59;;;;;;;16.58;6.28;;;10.80;64.40;;;;;;5017657;28;20618;-90
2021/01/18 10:56:33;;;;;;;17.73;6.97;;;10.80;64.20;;;;;;5036164;28;20652;-90
2021/01/18 10:59:00;;;;;;;12.25;5.72;;;10.80;63.80;;;;;;5036681;28;20190;-89
2021/01/18 11:01:26;;;;;;;10.73;5.93;;;10.80;63.90;;;;;;5038384;28;20193;-89
2021/01/18 11:03:53;;;;;;;17.38;6.45;;;10.70;63.80;;;;;;5037981;28;20178;-91
2021/01/18 11:06:22;;;;;;;20.27;6.18;;;10.80;64.10;;;;;;5057917;28;20168;-94
2021/01/18 11:08:52;;;;;;;12.98;6.43;;;10.80;64.30;;;;;;5057789;28;20170;-92
2021/01/18 11:11:27;;;;;;;16.10;6.55;;;10.80;64.30;;;;;;5054397;28;20304;-93
2021/01/18 11:14:05;;;;;;;12.23;5.75;;;10.80;63.80;;;;;;5050194;28;20201;-94
2021/01/18 11:16:31;;;;;;;21.17;5.72;;;10.90;64.00;;;;;;5042859;28;20632;-93
2021/01/18 11:19:05;;;;;;;16.20;6.22;;;11.00;64.10;;;;;;5038630;28;20178;-91
2021/01/18 11:21:31;;;;;;;14.10;6.90;;;11.00;63.70;;;;;;5044386;28;20200;-92
2021/01/18 11:23:57;;;;;;;9.38;5.30;;;11.00;63.70;;;;;;5041652;28;20186;-90
2021/01/18 11:26:24;;;;;;;16.48;5.80;;;11.10;63.40;;;;;;5041783;28;20205;-91
2021/01/18 11:28:51;;;;;;;20.02;5.55;;;11.10;63.00;;;;;;5033753;28;20186;-88
2021/01/18 11:31:17;;;;;;;18.65;5.70;;;11.10;63.10;;;;;;5018064;28;20225;-86
2021/01/18 11:33:44;;;;;;;11.17;6.87;;;11.20;63.10;;;;;;5019199;28;20175;-88
2021/01/18 11:36:11;;;;;;;14.50;6.93;;;11.10;63.00;;;;;;5024885;28;20413;-89
2021/01/18 11:38:37;;;;;;;11.88;7.57;;;11.10;63.20;;;;;;5028944;28;20174;-89
2021/01/18 11:41:02;;;;;;;14.65;6.88;;;11.10;63.20;;;;;;5017648;28;20241;-89
2021/01/18 11:43:32;;;;;;;9.27;6.10;;;10.90;62.80;;;;;;5016439;28;20178;-89
2021/01/18 11:45:58;;;;;;;14.63;6.97;;;10.90;63.10;;;;;;5022513;28;20178;-89
2021/01/18 11:48:24;;;;;;;9.82;5.93;;;11.00;63.00;;;;;;5039503;28;20239;-89
2021/01/18 11:50:50;;;;;;;31.97;5.60;;;11.00;63.20;;;;;;5036238;28;20201;-90
2021/01/18 11:53:17;;;;;;;8.40;5.57;;;11.10;63.30;;;;;;5036307;28;20198;-88
2021/01/18 11:55:46;;;;;;;18.42;6.85;;;11.20;63.30;;;;;;5035870;28;20269;-88
2021/01/18 11:58:12;;;;;;;12.50;6.10;;;11.20;63.20;;;;;;5037756;28;20189;-89
2021/01/18 12:00:38;;;;;;;19.30;5.47;;;11.20;63.00;;;;;;5036979;28;20217;-88
2021/01/18 12:03:04;;;;;;;17.50;6.90;;;11.30;63.10;;;;;;5039051;28;20204;-89
2021/01/18 12:05:30;;;;;;;10.10;6.35;;;11.30;63.10;;;;;;5044585;28;20215;-89
2021/01/18 12:08:02;;;;;;;13.95;5.32;;;11.40;62.90;;;;;;5049619;28;20201;-88
2021/01/18 12:10:28;;;;;;;10.45;6.05;;;11.40;62.70;;;;;;5047301;28;20215;-89
2021/01/18 12:12:54;;;;;;;17.08;6.97;;;11.40;62.40;;;;;;5051863;28;20182;-89
2021/01/18 12:15:20;;;;;;;12.38;6.07;;;11.30;62.40;;;;;;5023513;28;20198;-89
2021/01/18 12:17:46;;;;;;;12.68;5.78;;;11.20;62.50;;;;;;5041719;28;20209;-89
2021/01/18 12:20:17;;;;;;;15.80;6.73;;;11.20;62.70;;;;;;5037527;28;20185;-89
2021/01/18 12:22:44;;;;;;;9.73;6.35;;;11.10;62.90;;;;;;5035499;28;20470;-89
2021/01/18 12:25:11;;;;;;;12.38;6.20;;;11.10;63.20;;;;;;5037270;28;20645;-86
2021/01/18 12:27:36;;;;;;;18.55;6.55;;;11.10;63.30;;;;;;5034560;28;20212;-87
2021/01/18 12:30:05;;;;;;;15.10;7.07;;;11.20;63.30;;;;;;5044182;28;20249;-86
2021/01/18 12:32:30;;;;;;;18.38;7.95;;;11.20;63.40;;;;;;5039408;28;20194;-86
2021/01/18 12:34:56;;;;;;;15.00;7.20;;;11.20;63.20;;;;;;5040428;28;20182;-86
2021/01/18 12:37:22;;;;;;;14.30;5.63;;;11.20;63.40;;;;;;5041345;28;20167;-86
2021/01/18 12:39:48;;;;;;;16.93;6.70;;;11.20;63.40;;;;;;5041298;28;20296;-85
2021/01/18 12:42:13;;;;;;;13.00;6.73;;;11.10;63.60;;;;;;5039302;28;20194;-83
2021/01/18 12:44:39;;;;;;;24.43;9.87;;;11.20;63.70;;;;;;5037698;28;20181;-85
2021/01/18 12:47:06;;;;;;;14.90;5.90;;;11.20;63.40;;;;;;5024492;28;20523;-85
2021/01/18 12:49:33;;;;;;;10.57;6.30;;;11.20;63.50;;;;;;5034863;28;20178;-87
2021/01/18 12:51:59;;;;;;;18.30;7.18;;;11.20;63.30;;;;;;5041565;28;20216;-89
2021/01/18 12:54:25;;;;;;;12.52;6.78;;;11.20;63.40;;;;;;5035170;28;20166;-89
2021/01/18 12:56:54;;;;;;;15.23;5.73;;;11.10;63.50;;;;;;5039392;28;20242;-86
2021/01/18 12:59:20;;;;;;;19.40;6.80;;;11.10;63.90;;;;;;5039972;28;20178;-88
2021/01/18 13:01:46;;;;;;;14.00;6.00;;;11.00;64.00;;;;;;5038413;28;20209;-88
2021/01/18 13:04:13;;;;;;;14.70;6.00;;;10.90;64.20;;;;;;5034780;28;20665;-87